createdAt,value
2022-09-17T00:00:06.881Z,3.60
2022-09-17T00:00:16.719Z,3.70
2022-09-17T00:00:26.717Z,1.40
2022-09-17T00:00:36.704Z,1.30
2022-09-17T00:00:46.738Z,1.10
2022-09-17T00:00:57.441Z,1.10
2022-09-17T00:01:07.488Z,3.60
2022-09-17T00:01:16.704Z,3.80
2022-09-17T00:01:26.745Z,3.70
2022-09-17T00:01:36.769Z,1.20
2022-09-17T00:01:46.793Z,1.30
2022-09-17T00:01:56.766Z,1.50
2022-09-17T00:02:06.712Z,1.60
2022-09-17T00:02:16.775Z,4.10
2022-09-17T00:02:26.698Z,13.20
2022-09-17T00:02:36.746Z,12.90
2022-09-17T00:02:46.767Z,10.30
2022-09-17T00:02:56.787Z,1.20
2022-09-17T00:03:07.461Z,1.60
2022-09-17T00:03:16.830Z,1.70
2022-09-17T00:03:26.708Z,1.80
2022-09-17T00:03:36.707Z,3.70
2022-09-17T00:03:46.706Z,3.50
2022-09-17T00:03:56.711Z,3.60
2022-09-17T00:04:06.694Z,1.50
2022-09-17T00:04:16.721Z,1.60
2022-09-17T00:04:26.699Z,1.40
2022-09-17T00:04:37.533Z,1.40
2022-09-17T00:04:46.682Z,4.80
2022-09-17T00:04:56.682Z,5.10
2022-09-17T00:05:06.687Z,7.00
2022-09-17T00:05:17.434Z,3.20
2022-09-17T00:05:26.868Z,5.20
2022-09-17T00:05:36.698Z,3.00
2022-09-17T00:05:46.677Z,3.20
2022-09-17T00:05:56.683Z,1.30
2022-09-17T00:06:06.695Z,1.30
2022-09-17T00:06:16.678Z,1.20
2022-09-17T00:06:26.691Z,1.10
2022-09-17T00:06:37.419Z,0.90
2022-09-17T00:06:46.674Z,1.20
2022-09-17T00:06:56.683Z,1.50
2022-09-17T00:07:06.703Z,1.70
2022-09-17T00:07:16.687Z,1.40
2022-09-17T00:07:26.726Z,1.50
2022-09-17T00:07:36.675Z,1.50
2022-09-17T00:07:46.673Z,1.50
2022-09-17T00:07:56.676Z,1.80
2022-09-17T00:08:06.738Z,1.60
2022-09-17T00:08:16.685Z,1.90
2022-09-17T00:08:26.681Z,1.90
2022-09-17T00:08:36.671Z,1.90
2022-09-17T00:08:46.674Z,3.40
2022-09-17T00:08:56.684Z,3.30
2022-09-17T00:09:07.573Z,3.50
2022-09-17T00:09:16.678Z,1.70
2022-09-17T00:09:26.691Z,2.00
2022-09-17T00:09:36.663Z,1.90
2022-09-17T00:09:46.678Z,1.50
2022-09-17T00:09:56.684Z,1.20
2022-09-17T00:10:06.672Z,1.20
2022-09-17T00:10:16.662Z,1.40
2022-09-17T00:10:26.680Z,3.10
2022-09-17T00:10:36.663Z,3.50
2022-09-17T00:10:46.657Z,3.60
2022-09-17T00:10:56.660Z,2.00
2022-09-17T00:11:06.657Z,1.80
2022-09-17T00:11:16.690Z,1.60
2022-09-17T00:11:26.668Z,1.20
2022-09-17T00:11:36.747Z,1.20
2022-09-17T00:11:47.411Z,1.20
2022-09-17T00:11:56.666Z,4.10
2022-09-17T00:12:06.768Z,4.20
2022-09-17T00:12:16.668Z,4.30
2022-09-17T00:12:26.644Z,1.40
2022-09-17T00:12:36.660Z,1.50
2022-09-17T00:12:46.662Z,1.60
2022-09-17T00:12:56.648Z,1.80
2022-09-17T00:13:06.670Z,1.90
2022-09-17T00:13:16.714Z,3.60
2022-09-17T00:13:26.648Z,3.90
2022-09-17T00:13:37.416Z,4.00
2022-09-17T00:13:46.642Z,2.20
2022-09-17T00:13:56.644Z,1.90
2022-09-17T00:14:06.650Z,1.30
2022-09-17T00:14:16.673Z,3.70
2022-09-17T00:14:26.643Z,4.00
2022-09-17T00:14:36.665Z,4.10
2022-09-17T00:14:46.642Z,2.20
2022-09-17T00:14:56.650Z,2.30
2022-09-17T00:15:06.659Z,2.30
2022-09-17T00:15:16.635Z,4.70
2022-09-17T00:15:26.651Z,4.40
2022-09-17T00:15:37.418Z,4.50
2022-09-17T00:15:46.684Z,1.90
2022-09-17T00:15:56.752Z,1.70
2022-09-17T00:16:06.678Z,1.30
2022-09-17T00:16:16.658Z,1.50
2022-09-17T00:16:26.701Z,1.40
2022-09-17T00:16:36.706Z,1.40
2022-09-17T00:16:46.743Z,1.30
2022-09-17T00:17:01.200Z,1.30
2022-09-17T00:17:06.625Z,1.20
2022-09-17T00:17:16.628Z,1.30
2022-09-17T00:17:26.651Z,1.40
2022-09-17T00:17:36.636Z,1.50
2022-09-17T00:17:47.420Z,1.30
2022-09-17T00:17:56.639Z,1.30
2022-09-17T00:18:06.620Z,4.00
2022-09-17T00:18:16.627Z,4.00
2022-09-17T00:18:26.670Z,3.90
2022-09-17T00:18:36.621Z,1.70
2022-09-17T00:18:46.636Z,1.60
2022-09-17T00:18:56.680Z,1.40
2022-09-17T00:19:06.618Z,5.00
2022-09-17T00:19:16.620Z,5.20
2022-09-17T00:19:26.637Z,5.00
2022-09-17T00:19:36.615Z,1.40
2022-09-17T00:19:47.548Z,1.30
2022-09-17T00:19:56.691Z,1.40
2022-09-17T00:20:07.429Z,1.40
2022-09-17T00:20:16.616Z,3.90
2022-09-17T00:20:26.625Z,4.10
2022-09-17T00:20:36.615Z,6.80
2022-09-17T00:20:46.624Z,4.50
2022-09-17T00:20:56.621Z,4.40
2022-09-17T00:21:06.616Z,3.60
2022-09-17T00:21:16.629Z,3.30
2022-09-17T00:21:26.663Z,3.20
2022-09-17T00:21:37.518Z,1.00
2022-09-17T00:21:46.625Z,6.30
2022-09-17T00:21:57.428Z,6.30
2022-09-17T00:22:06.628Z,8.40
2022-09-17T00:22:16.627Z,3.10
2022-09-17T00:22:26.598Z,3.10
2022-09-17T00:22:36.603Z,1.30
2022-09-17T00:22:46.625Z,1.50
2022-09-17T00:22:56.602Z,3.70
2022-09-17T00:23:06.641Z,3.90
2022-09-17T00:23:16.598Z,4.00
2022-09-17T00:23:26.599Z,1.80
2022-09-17T00:23:36.668Z,1.50
2022-09-17T00:23:46.693Z,1.50
2022-09-17T00:23:57.421Z,1.60
2022-09-17T00:24:06.682Z,4.00
2022-09-17T00:24:16.594Z,4.10
2022-09-17T00:24:26.676Z,3.90
2022-09-17T00:24:36.621Z,3.90
2022-09-17T00:24:46.596Z,4.10
2022-09-17T00:24:56.604Z,4.40
2022-09-17T00:25:06.616Z,2.00
2022-09-17T00:25:16.587Z,1.70
2022-09-17T00:25:26.589Z,1.40
2022-09-17T00:25:36.637Z,1.30
2022-09-17T00:25:46.588Z,1.40
2022-09-17T00:25:56.590Z,1.30
2022-09-17T00:26:07.441Z,1.50
2022-09-17T00:26:16.584Z,1.70
2022-09-17T00:26:27.442Z,4.50
2022-09-17T00:26:36.619Z,9.30
2022-09-17T00:26:46.679Z,9.10
2022-09-17T00:26:56.597Z,6.10
2022-09-17T00:27:06.578Z,1.60
2022-09-17T00:27:16.685Z,1.40
2022-09-17T00:27:26.591Z,1.30
2022-09-17T00:27:36.580Z,1.40
2022-09-17T00:27:47.454Z,1.60
2022-09-17T00:27:56.593Z,2.60
2022-09-17T00:28:06.584Z,2.50
2022-09-17T00:28:16.678Z,2.50
2022-09-17T00:28:26.581Z,1.60
2022-09-17T00:28:36.575Z,1.40
2022-09-17T00:28:46.624Z,1.40
2022-09-17T00:28:56.636Z,3.60
2022-09-17T00:29:06.567Z,3.80
2022-09-17T00:29:16.577Z,4.00
2022-09-17T00:29:26.567Z,1.80
2022-09-17T00:29:36.570Z,1.70
2022-09-17T00:29:47.426Z,1.60
2022-09-17T00:29:56.571Z,1.40
2022-09-17T00:30:06.566Z,1.40
2022-09-17T00:30:17.437Z,4.50
2022-09-17T00:30:26.563Z,4.60
2022-09-17T00:30:36.586Z,4.40
2022-09-17T00:30:46.586Z,1.60
2022-09-17T00:30:56.629Z,1.50
2022-09-17T00:31:06.625Z,1.80
2022-09-17T00:31:16.720Z,1.80
2022-09-17T00:31:26.621Z,2.00
2022-09-17T00:31:36.688Z,5.30
2022-09-17T00:31:46.651Z,5.20
2022-09-17T00:31:56.560Z,5.10
2022-09-17T00:32:06.559Z,1.50
2022-09-17T00:32:16.623Z,1.80
2022-09-17T00:32:26.556Z,1.70
2022-09-17T00:32:36.566Z,1.50
2022-09-17T00:32:46.619Z,1.30
2022-09-17T00:32:56.573Z,1.70
2022-09-17T00:33:07.419Z,1.80
2022-09-17T00:33:16.556Z,1.80
2022-09-17T00:33:26.565Z,1.70
2022-09-17T00:33:36.570Z,1.70
2022-09-17T00:33:46.552Z,1.80
2022-09-17T00:33:56.978Z,7.10
2022-09-17T00:34:06.586Z,7.10
2022-09-17T00:34:16.556Z,7.10
2022-09-17T00:34:27.426Z,3.60
2022-09-17T00:34:36.607Z,5.60
2022-09-17T00:34:46.549Z,5.50
2022-09-17T00:34:56.709Z,3.30
2022-09-17T00:35:06.545Z,1.20
2022-09-17T00:35:16.561Z,1.40
2022-09-17T00:35:26.550Z,6.70
2022-09-17T00:35:36.638Z,6.80
2022-09-17T00:35:46.546Z,7.00
2022-09-17T00:35:56.561Z,4.80
2022-09-17T00:36:06.546Z,6.70
2022-09-17T00:36:16.545Z,6.80
2022-09-17T00:36:27.424Z,3.50
2022-09-17T00:36:36.533Z,1.80
2022-09-17T00:36:46.557Z,1.70
2022-09-17T00:36:56.552Z,2.10
2022-09-17T00:37:06.618Z,2.20
2022-09-17T00:37:16.536Z,3.50
2022-09-17T00:37:26.557Z,3.50
2022-09-17T00:37:36.529Z,3.70
2022-09-17T00:37:46.534Z,1.70
2022-09-17T00:37:56.538Z,1.80
2022-09-17T00:38:06.703Z,5.20
2022-09-17T00:38:16.546Z,5.10
2022-09-17T00:38:26.529Z,5.10
2022-09-17T00:38:36.537Z,1.40
2022-09-17T00:38:46.697Z,1.50
2022-09-17T00:38:56.521Z,1.60
2022-09-17T00:39:06.610Z,3.40
2022-09-17T00:39:16.536Z,3.10
2022-09-17T00:39:26.525Z,3.20
2022-09-17T00:39:36.533Z,1.20
2022-09-17T00:39:46.547Z,1.50
2022-09-17T00:39:56.574Z,1.50
2022-09-17T00:40:06.570Z,1.70
2022-09-17T00:40:16.728Z,5.90
2022-09-17T00:40:26.626Z,5.90
2022-09-17T00:40:36.753Z,5.90
2022-09-17T00:40:46.546Z,1.30
2022-09-17T00:40:56.513Z,1.40
2022-09-17T00:41:06.520Z,1.30
2022-09-17T00:41:16.561Z,4.20
2022-09-17T00:41:26.516Z,4.30
2022-09-17T00:41:36.530Z,4.50
2022-09-17T00:41:46.513Z,1.70
2022-09-17T00:41:56.524Z,1.80
2022-09-17T00:42:06.568Z,1.80
2022-09-17T00:42:16.507Z,1.80
2022-09-17T00:42:26.535Z,3.80
2022-09-17T00:42:37.565Z,3.90
2022-09-17T00:42:46.525Z,3.70
2022-09-17T00:42:56.504Z,5.20
2022-09-17T00:43:06.534Z,5.30
2022-09-17T00:43:16.509Z,5.60
2022-09-17T00:43:26.514Z,1.60
2022-09-17T00:43:36.545Z,1.70
2022-09-17T00:43:46.518Z,1.60
2022-09-17T00:43:56.509Z,1.60
2022-09-17T00:44:06.561Z,1.60
2022-09-17T00:44:16.576Z,1.80
2022-09-17T00:44:26.623Z,1.90
2022-09-17T00:44:36.597Z,1.70
2022-09-17T00:44:47.442Z,1.60
2022-09-17T00:44:56.506Z,1.70
2022-09-17T00:45:06.497Z,1.70
2022-09-17T00:45:16.520Z,1.80
2022-09-17T00:45:26.514Z,1.60
2022-09-17T00:45:36.493Z,1.50
2022-09-17T00:45:46.634Z,1.50
2022-09-17T00:45:56.512Z,1.50
2022-09-17T00:46:06.555Z,1.60
2022-09-17T00:46:16.555Z,1.90
2022-09-17T00:46:26.582Z,1.50
2022-09-17T00:46:36.544Z,1.40
2022-09-17T00:46:47.479Z,1.60
2022-09-17T00:46:56.571Z,1.70
2022-09-17T00:47:06.496Z,1.80
2022-09-17T00:47:16.503Z,1.60
2022-09-17T00:47:26.491Z,2.30
2022-09-17T00:47:36.494Z,2.20
2022-09-17T00:47:46.496Z,2.10
2022-09-17T00:47:56.481Z,1.50
2022-09-17T00:48:06.494Z,1.40
2022-09-17T00:48:16.503Z,1.50
2022-09-17T00:48:26.515Z,3.60
2022-09-17T00:48:36.487Z,3.50
2022-09-17T00:48:46.518Z,3.30
2022-09-17T00:48:56.572Z,1.40
2022-09-17T00:49:06.498Z,1.60
2022-09-17T00:49:16.474Z,1.80
2022-09-17T00:49:26.555Z,1.50
2022-09-17T00:49:36.484Z,1.50
2022-09-17T00:49:46.477Z,3.40
2022-09-17T00:49:56.471Z,3.80
2022-09-17T00:50:07.558Z,3.60
2022-09-17T00:50:16.472Z,1.90
2022-09-17T00:50:26.478Z,1.80
2022-09-17T00:50:36.491Z,1.70
2022-09-17T00:50:46.470Z,3.50
2022-09-17T00:50:57.428Z,5.90
2022-09-17T00:51:06.501Z,6.00
2022-09-17T00:51:16.466Z,3.60
2022-09-17T00:51:26.493Z,3.90
2022-09-17T00:51:36.492Z,4.00
2022-09-17T00:51:46.473Z,4.10
2022-09-17T00:52:00.292Z,7.30
2022-09-17T00:52:06.508Z,9.50
2022-09-17T00:52:16.462Z,15.80
2022-09-17T00:52:26.473Z,12.70
2022-09-17T00:52:36.513Z,10.30
2022-09-17T00:52:46.464Z,4.10
2022-09-17T00:52:59.493Z,1.80
2022-09-17T00:53:06.460Z,1.80
2022-09-17T00:53:16.476Z,1.50
2022-09-17T00:53:26.478Z,1.30
2022-09-17T00:53:36.457Z,1.40
2022-09-17T00:53:46.556Z,1.70
2022-09-17T00:53:56.477Z,4.00
2022-09-17T00:54:06.463Z,3.80
2022-09-17T00:54:16.463Z,3.30
2022-09-17T00:54:26.489Z,4.30
2022-09-17T00:54:36.519Z,4.50
2022-09-17T00:54:46.458Z,4.70
2022-09-17T00:54:56.479Z,3.20
2022-09-17T00:55:07.551Z,3.30
2022-09-17T00:55:16.458Z,5.80
2022-09-17T00:55:26.451Z,6.80
2022-09-17T00:55:36.454Z,6.50
2022-09-17T00:55:46.463Z,6.70
2022-09-17T00:55:56.488Z,3.70
2022-09-17T00:56:06.463Z,3.70
2022-09-17T00:56:16.468Z,1.40
2022-09-17T00:56:26.460Z,1.50
2022-09-17T00:56:36.461Z,1.70
2022-09-17T00:56:46.468Z,2.00
2022-09-17T00:56:56.444Z,6.60
2022-09-17T00:57:06.460Z,6.40
2022-09-17T00:57:16.727Z,8.70
2022-09-17T00:57:26.448Z,3.80
2022-09-17T00:57:36.448Z,7.20
2022-09-17T00:57:46.474Z,4.70
2022-09-17T00:57:57.458Z,7.60
2022-09-17T00:58:06.466Z,4.10
2022-09-17T00:58:16.460Z,4.00
2022-09-17T00:58:26.440Z,1.20
2022-09-17T00:58:41.008Z,1.60
2022-09-17T00:58:46.580Z,1.60
2022-09-17T00:58:56.431Z,1.80
2022-09-17T00:59:06.453Z,1.60
2022-09-17T00:59:16.508Z,1.50
2022-09-17T00:59:26.435Z,1.50
2022-09-17T00:59:36.445Z,1.50
2022-09-17T00:59:47.609Z,1.50
2022-09-17T00:59:56.431Z,2.10
2022-09-17T01:00:06.474Z,2.00
2022-09-17T01:00:16.445Z,2.00
2022-09-17T01:00:26.451Z,1.40
2022-09-17T01:00:36.510Z,1.50
2022-09-17T01:00:46.470Z,1.40
2022-09-17T01:00:56.522Z,1.50
2022-09-17T01:01:06.479Z,1.40
2022-09-17T01:01:16.472Z,1.40
2022-09-17T01:01:26.553Z,3.50
2022-09-17T01:01:36.545Z,3.30
2022-09-17T01:01:46.505Z,3.20
2022-09-17T01:01:56.518Z,1.40
2022-09-17T01:02:06.456Z,1.40
2022-09-17T01:02:16.525Z,1.50
2022-09-17T01:02:26.507Z,1.40
2022-09-17T01:02:36.464Z,1.50
2022-09-17T01:02:46.437Z,1.60
2022-09-17T01:02:56.436Z,1.60
2022-09-17T01:03:06.418Z,1.40
2022-09-17T01:03:16.480Z,1.30
2022-09-17T01:03:26.497Z,1.40
2022-09-17T01:03:36.418Z,1.80
2022-09-17T01:03:46.414Z,1.50
2022-09-17T01:03:56.437Z,3.70
2022-09-17T01:04:06.513Z,3.50
2022-09-17T01:04:16.446Z,6.30
2022-09-17T01:04:26.406Z,3.80
2022-09-17T01:04:36.414Z,4.00
2022-09-17T01:04:46.408Z,1.40
2022-09-17T01:04:56.488Z,1.30
2022-09-17T01:05:06.408Z,1.40
2022-09-17T01:05:16.549Z,1.60
2022-09-17T01:05:26.963Z,1.50
2022-09-17T01:05:36.408Z,4.20
2022-09-17T01:05:46.424Z,4.10
2022-09-17T01:05:56.403Z,4.10
2022-09-17T01:06:06.399Z,4.10
2022-09-17T01:06:16.999Z,4.20
2022-09-17T01:06:26.395Z,4.20
2022-09-17T01:06:36.399Z,1.50
2022-09-17T01:06:46.417Z,1.50
2022-09-17T01:06:56.395Z,4.60
2022-09-17T01:07:06.416Z,7.10
2022-09-17T01:07:16.465Z,10.10
2022-09-17T01:07:26.403Z,6.70
2022-09-17T01:07:36.454Z,6.40
2022-09-17T01:07:46.394Z,3.20
2022-09-17T01:07:56.944Z,3.20
2022-09-17T01:08:06.402Z,3.00
2022-09-17T01:08:18.933Z,5.50
2022-09-17T01:08:26.391Z,9.60
2022-09-17T01:08:36.405Z,7.70
2022-09-17T01:08:46.427Z,5.30
2022-09-17T01:08:56.475Z,4.50
2022-09-17T01:09:06.416Z,4.40
2022-09-17T01:09:16.384Z,4.40
2022-09-17T01:09:26.396Z,1.40
2022-09-17T01:09:36.953Z,1.40
2022-09-17T01:09:46.390Z,1.20
2022-09-17T01:09:56.388Z,1.30
2022-09-17T01:10:06.456Z,1.60
2022-09-17T01:10:16.379Z,1.60
2022-09-17T01:10:26.403Z,1.70
2022-09-17T01:10:36.381Z,1.40
2022-09-17T01:10:46.388Z,1.40
2022-09-17T01:10:56.397Z,1.30
2022-09-17T01:11:06.397Z,1.40
2022-09-17T01:11:16.385Z,4.40
2022-09-17T01:11:26.420Z,8.60
2022-09-17T01:11:36.386Z,8.50
2022-09-17T01:11:46.475Z,5.40
2022-09-17T01:11:56.396Z,4.30
2022-09-17T01:12:06.391Z,4.40
2022-09-17T01:12:16.394Z,4.50
2022-09-17T01:12:26.406Z,1.70
2022-09-17T01:12:36.388Z,5.70
2022-09-17T01:12:46.480Z,5.70
2022-09-17T01:12:56.387Z,5.80
2022-09-17T01:13:06.376Z,2.00
2022-09-17T01:13:16.379Z,4.80
2022-09-17T01:13:26.417Z,4.80
2022-09-17T01:13:36.368Z,7.10
2022-09-17T01:13:46.942Z,3.70
2022-09-17T01:13:56.461Z,3.60
2022-09-17T01:14:06.371Z,1.70
2022-09-17T01:14:16.388Z,1.50
2022-09-17T01:14:26.371Z,1.60
2022-09-17T01:14:36.368Z,1.30
2022-09-17T01:14:46.393Z,1.40
2022-09-17T01:14:56.358Z,1.40
2022-09-17T01:15:06.368Z,1.10
2022-09-17T01:15:16.440Z,1.20
2022-09-17T01:15:26.372Z,1.30
2022-09-17T01:15:36.364Z,4.50
2022-09-17T01:15:46.433Z,4.60
2022-09-17T01:15:56.406Z,6.20
2022-09-17T01:16:06.389Z,2.90
2022-09-17T01:16:16.564Z,2.90
2022-09-17T01:16:26.397Z,1.60
2022-09-17T01:16:36.456Z,4.40
2022-09-17T01:16:46.367Z,7.80
2022-09-17T01:16:56.358Z,7.70
2022-09-17T01:17:06.376Z,4.60
2022-09-17T01:17:16.941Z,1.50
2022-09-17T01:17:26.353Z,1.40
2022-09-17T01:17:36.455Z,1.20
2022-09-17T01:17:46.351Z,1.30
2022-09-17T01:17:56.970Z,1.40
2022-09-17T01:18:06.371Z,1.60
2022-09-17T01:18:16.361Z,8.90
2022-09-17T01:18:26.348Z,9.00
2022-09-17T01:18:36.391Z,8.90
2022-09-17T01:18:46.418Z,1.60
2022-09-17T01:18:56.361Z,1.40
2022-09-17T01:19:06.359Z,1.20
2022-09-17T01:19:16.364Z,1.60
2022-09-17T01:19:26.346Z,1.90
2022-09-17T01:19:36.349Z,1.70
2022-09-17T01:19:46.341Z,1.70
2022-09-17T01:19:56.373Z,2.00
2022-09-17T01:20:06.403Z,2.00
2022-09-17T01:20:16.340Z,4.90
2022-09-17T01:20:26.518Z,4.50
2022-09-17T01:20:36.340Z,4.60
2022-09-17T01:20:46.340Z,1.60
2022-09-17T01:20:56.367Z,1.70
2022-09-17T01:21:06.343Z,1.60
2022-09-17T01:21:16.355Z,1.30
2022-09-17T01:21:26.476Z,1.20
2022-09-17T01:21:36.345Z,1.40
2022-09-17T01:21:46.347Z,1.50
2022-09-17T01:21:56.335Z,1.60
2022-09-17T01:22:06.935Z,1.40
2022-09-17T01:22:16.332Z,1.30
2022-09-17T01:22:26.379Z,1.50
2022-09-17T01:22:36.325Z,1.50
2022-09-17T01:22:46.343Z,1.50
2022-09-17T01:22:56.362Z,1.40
2022-09-17T01:23:06.335Z,1.60
2022-09-17T01:23:16.340Z,1.50
2022-09-17T01:23:26.323Z,1.20
2022-09-17T01:23:36.324Z,1.30
2022-09-17T01:23:47.055Z,4.00
2022-09-17T01:23:56.348Z,10.20
2022-09-17T01:24:06.331Z,10.10
2022-09-17T01:24:16.462Z,10.00
2022-09-17T01:24:26.329Z,3.90
2022-09-17T01:24:36.322Z,3.70
2022-09-17T01:24:46.333Z,1.10
2022-09-17T01:24:56.319Z,1.10
2022-09-17T01:25:06.319Z,3.70
2022-09-17T01:25:16.349Z,3.60
2022-09-17T01:25:26.313Z,3.50
2022-09-17T01:25:36.406Z,1.20
2022-09-17T01:25:46.342Z,1.40
2022-09-17T01:25:56.313Z,1.30
2022-09-17T01:26:06.336Z,4.90
2022-09-17T01:26:16.960Z,4.80
2022-09-17T01:26:26.315Z,4.80
2022-09-17T01:26:36.954Z,1.30
2022-09-17T01:26:46.304Z,4.60
2022-09-17T01:26:56.316Z,4.50
2022-09-17T01:27:06.334Z,4.50
2022-09-17T01:27:16.334Z,1.20
2022-09-17T01:27:26.327Z,1.50
2022-09-17T01:27:36.321Z,1.60
2022-09-17T01:27:46.968Z,1.70
2022-09-17T01:27:56.306Z,1.80
2022-09-17T01:28:06.322Z,1.80
2022-09-17T01:28:16.324Z,1.80
2022-09-17T01:28:26.343Z,5.60
2022-09-17T01:28:36.309Z,5.50
2022-09-17T01:28:46.297Z,5.40
2022-09-17T01:28:56.946Z,1.10
2022-09-17T01:29:06.297Z,1.20
2022-09-17T01:29:16.304Z,1.30
2022-09-17T01:29:26.316Z,1.40
2022-09-17T01:29:36.336Z,1.30
2022-09-17T01:29:46.305Z,1.30
2022-09-17T01:29:56.353Z,1.30
2022-09-17T01:30:06.301Z,1.40
2022-09-17T01:30:16.299Z,1.30
2022-09-17T01:30:26.348Z,1.20
2022-09-17T01:30:36.355Z,1.10
2022-09-17T01:30:46.336Z,0.90
2022-09-17T01:30:56.305Z,1.10
2022-09-17T01:31:06.357Z,1.30
2022-09-17T01:31:17.028Z,1.50
2022-09-17T01:31:29.003Z,3.50
2022-09-17T01:31:36.384Z,3.60
2022-09-17T01:31:47.041Z,3.90
2022-09-17T01:31:56.384Z,5.10
2022-09-17T01:32:06.281Z,5.00
2022-09-17T01:32:16.319Z,4.70
2022-09-17T01:32:26.318Z,1.50
2022-09-17T01:32:36.294Z,1.80
2022-09-17T01:32:46.289Z,2.10
2022-09-17T01:32:56.285Z,1.90
2022-09-17T01:33:06.293Z,1.60
2022-09-17T01:33:16.443Z,4.20
2022-09-17T01:33:26.280Z,4.30
2022-09-17T01:33:36.275Z,7.80
2022-09-17T01:33:46.282Z,4.80
2022-09-17T01:33:56.287Z,7.50
2022-09-17T01:34:06.277Z,4.20
2022-09-17T01:34:16.293Z,4.40
2022-09-17T01:34:26.964Z,1.70
2022-09-17T01:34:36.303Z,1.80
2022-09-17T01:34:46.318Z,1.90
2022-09-17T01:34:56.294Z,1.50
2022-09-17T01:35:06.345Z,3.90
2022-09-17T01:35:16.272Z,3.80
2022-09-17T01:35:26.275Z,4.20
2022-09-17T01:35:36.396Z,2.60
2022-09-17T01:35:46.308Z,2.30
2022-09-17T01:35:56.326Z,2.30
2022-09-17T01:36:06.285Z,3.90
2022-09-17T01:36:16.276Z,4.30
2022-09-17T01:36:26.358Z,4.20
2022-09-17T01:36:36.294Z,4.30
2022-09-17T01:36:46.256Z,3.90
2022-09-17T01:36:56.261Z,3.70
2022-09-17T01:37:06.943Z,1.50
2022-09-17T01:37:16.267Z,1.80
2022-09-17T01:37:30.539Z,2.20
2022-09-17T01:37:36.294Z,1.70
2022-09-17T01:37:46.359Z,1.70
2022-09-17T01:37:56.264Z,1.70
2022-09-17T01:38:06.299Z,1.90
2022-09-17T01:38:16.268Z,1.60
2022-09-17T01:38:26.282Z,1.50
2022-09-17T01:38:36.257Z,1.30
2022-09-17T01:38:46.370Z,1.30
2022-09-17T01:38:56.365Z,1.40
2022-09-17T01:39:06.246Z,1.50
2022-09-17T01:39:16.278Z,1.50
2022-09-17T01:39:26.279Z,5.00
2022-09-17T01:39:36.247Z,4.80
2022-09-17T01:39:46.243Z,8.30
2022-09-17T01:39:56.345Z,4.60
2022-09-17T01:40:06.320Z,4.60
2022-09-17T01:40:16.311Z,1.50
2022-09-17T01:40:26.411Z,1.50
2022-09-17T01:40:36.311Z,1.60
2022-09-17T01:40:46.966Z,1.30
2022-09-17T01:40:56.276Z,1.60
2022-09-17T01:41:06.305Z,1.80
2022-09-17T01:41:16.276Z,2.10
2022-09-17T01:41:26.278Z,1.60
2022-09-17T01:41:36.304Z,1.40
2022-09-17T01:41:46.261Z,7.60
2022-09-17T01:41:56.238Z,8.00
2022-09-17T01:42:06.252Z,8.10
2022-09-17T01:42:16.255Z,1.40
2022-09-17T01:42:26.247Z,1.20
2022-09-17T01:42:36.245Z,1.30
2022-09-17T01:42:46.380Z,4.00
2022-09-17T01:42:56.315Z,4.20
2022-09-17T01:43:06.248Z,4.20
2022-09-17T01:43:16.258Z,2.00
2022-09-17T01:43:26.233Z,1.80
2022-09-17T01:43:36.249Z,1.40
2022-09-17T01:43:46.233Z,1.30
2022-09-17T01:43:56.232Z,1.50
2022-09-17T01:44:06.232Z,4.00
2022-09-17T01:44:16.265Z,3.70
2022-09-17T01:44:26.232Z,3.70
2022-09-17T01:44:36.242Z,1.90
2022-09-17T01:44:46.265Z,1.80
2022-09-17T01:44:56.959Z,4.50
2022-09-17T01:45:06.236Z,4.20
2022-09-17T01:45:16.317Z,6.60
2022-09-17T01:45:26.225Z,3.30
2022-09-17T01:45:36.257Z,3.50
2022-09-17T01:45:46.224Z,1.50
2022-09-17T01:45:56.230Z,1.10
2022-09-17T01:46:06.286Z,1.20
2022-09-17T01:46:16.344Z,1.30
2022-09-17T01:46:26.287Z,6.30
2022-09-17T01:46:36.265Z,6.30
2022-09-17T01:46:47.034Z,6.30
2022-09-17T01:46:56.384Z,1.20
2022-09-17T01:47:06.350Z,1.20
2022-09-17T01:47:20.707Z,1.10
2022-09-17T01:47:26.229Z,4.20
2022-09-17T01:47:36.286Z,6.80
2022-09-17T01:47:46.209Z,6.80
2022-09-17T01:47:56.227Z,3.60
2022-09-17T01:48:06.249Z,1.50
2022-09-17T01:48:16.226Z,1.70
2022-09-17T01:48:26.216Z,1.80
2022-09-17T01:48:36.211Z,4.50
2022-09-17T01:48:46.232Z,4.50
2022-09-17T01:48:56.233Z,4.30
2022-09-17T01:49:06.974Z,1.60
2022-09-17T01:49:16.209Z,1.60
2022-09-17T01:49:26.212Z,1.40
2022-09-17T01:49:36.201Z,1.40
2022-09-17T01:49:46.204Z,1.40
2022-09-17T01:49:56.241Z,1.60
2022-09-17T01:50:06.205Z,1.60
2022-09-17T01:50:16.207Z,1.70
2022-09-17T01:50:26.229Z,1.40
2022-09-17T01:50:36.310Z,1.40
2022-09-17T01:50:46.324Z,1.40
2022-09-17T01:50:56.269Z,1.20
2022-09-17T01:51:06.212Z,1.40
2022-09-17T01:51:16.200Z,1.20
2022-09-17T01:51:26.259Z,1.30
2022-09-17T01:51:36.191Z,1.20
2022-09-17T01:51:46.209Z,1.10
2022-09-17T01:51:56.260Z,1.20
2022-09-17T01:52:06.194Z,5.00
2022-09-17T01:52:16.221Z,8.60
2022-09-17T01:52:26.190Z,8.80
2022-09-17T01:52:36.234Z,10.50
2022-09-17T01:52:46.201Z,7.10
2022-09-17T01:52:56.200Z,6.90
2022-09-17T01:53:06.198Z,1.40
2022-09-17T01:53:16.235Z,1.30
2022-09-17T01:53:26.239Z,1.30
2022-09-17T01:53:36.202Z,4.10
2022-09-17T01:53:46.208Z,4.20
2022-09-17T01:53:56.201Z,4.70
2022-09-17T01:54:06.215Z,2.00
2022-09-17T01:54:16.228Z,1.80
2022-09-17T01:54:26.177Z,3.20
2022-09-17T01:54:39.195Z,3.30
2022-09-17T01:54:46.175Z,5.30
2022-09-17T01:54:56.183Z,3.30
2022-09-17T01:55:06.205Z,3.30
2022-09-17T01:55:16.236Z,1.80
2022-09-17T01:55:26.174Z,1.60
2022-09-17T01:55:36.202Z,1.70
2022-09-17T01:55:46.223Z,1.40
2022-09-17T01:55:56.188Z,1.40
2022-09-17T01:56:06.189Z,1.50
2022-09-17T01:56:16.184Z,1.40
2022-09-17T01:56:26.172Z,1.20
2022-09-17T01:56:36.254Z,1.20
2022-09-17T01:56:46.164Z,1.30
2022-09-17T01:56:56.177Z,3.40
2022-09-17T01:57:06.177Z,3.50
2022-09-17T01:57:16.210Z,3.60
2022-09-17T01:57:26.232Z,2.00
2022-09-17T01:57:36.962Z,1.90
2022-09-17T01:57:46.168Z,2.00
2022-09-17T01:57:56.956Z,1.90
2022-09-17T01:58:06.158Z,1.80
2022-09-17T01:58:16.173Z,1.60
2022-09-17T01:58:26.398Z,1.50
2022-09-17T01:58:36.173Z,3.20
2022-09-17T01:58:46.174Z,3.20
2022-09-17T01:58:56.174Z,3.10
2022-09-17T01:59:07.145Z,1.30
2022-09-17T01:59:16.156Z,10.10
2022-09-17T01:59:26.192Z,10.10
2022-09-17T01:59:36.154Z,10.40
2022-09-17T01:59:46.171Z,1.30
2022-09-17T01:59:56.276Z,1.70
2022-09-17T02:00:06.271Z,1.50
2022-09-17T02:00:16.162Z,1.70
2022-09-17T02:00:26.165Z,1.60
2022-09-17T02:00:36.178Z,5.90
2022-09-17T02:00:46.221Z,7.80
2022-09-17T02:00:57.010Z,7.80
2022-09-17T02:01:06.196Z,3.40
2022-09-17T02:01:16.291Z,2.00
2022-09-17T02:01:26.226Z,4.10
2022-09-17T02:01:36.195Z,4.20
2022-09-17T02:01:46.239Z,4.00
2022-09-17T02:01:56.263Z,1.40
2022-09-17T02:02:06.205Z,1.20
2022-09-17T02:02:16.215Z,1.20
2022-09-17T02:02:26.975Z,4.30
2022-09-17T02:02:36.159Z,4.30
2022-09-17T02:02:46.158Z,4.30
2022-09-17T02:02:57.020Z,1.40
2022-09-17T02:03:06.150Z,1.10
2022-09-17T02:03:16.149Z,1.60
2022-09-17T02:03:26.147Z,1.60
2022-09-17T02:03:36.951Z,7.70
2022-09-17T02:03:46.176Z,7.20
2022-09-17T02:03:56.233Z,7.30
2022-09-17T02:04:06.204Z,1.30
2022-09-17T02:04:16.954Z,1.40
2022-09-17T02:04:26.144Z,3.90
2022-09-17T02:04:36.140Z,3.70
2022-09-17T02:04:46.961Z,3.90
2022-09-17T02:04:56.136Z,1.40
2022-09-17T02:05:06.146Z,3.90
2022-09-17T02:05:16.140Z,5.90
2022-09-17T02:05:26.146Z,5.90
2022-09-17T02:05:36.971Z,3.40
2022-09-17T02:05:46.187Z,1.70
2022-09-17T02:05:56.238Z,3.80
2022-09-17T02:06:06.134Z,3.70
2022-09-17T02:06:16.139Z,4.00
2022-09-17T02:06:26.125Z,1.60
2022-09-17T02:06:36.120Z,1.60
2022-09-17T02:06:46.129Z,1.40
2022-09-17T02:06:56.241Z,1.70
2022-09-17T02:07:06.125Z,4.50
2022-09-17T02:07:16.122Z,4.60
2022-09-17T02:07:26.147Z,4.90
2022-09-17T02:07:36.130Z,2.00
2022-09-17T02:07:46.152Z,2.00
2022-09-17T02:07:56.146Z,6.80
2022-09-17T02:08:06.128Z,9.60
2022-09-17T02:08:16.128Z,9.40
2022-09-17T02:08:26.263Z,4.10
2022-09-17T02:08:36.123Z,1.50
2022-09-17T02:08:46.128Z,4.20
2022-09-17T02:08:56.109Z,4.30
2022-09-17T02:09:06.953Z,4.40
2022-09-17T02:09:16.106Z,1.50
2022-09-17T02:09:26.156Z,1.50
2022-09-17T02:09:36.107Z,1.10
2022-09-17T02:09:46.136Z,1.20
2022-09-17T02:09:56.287Z,1.30
2022-09-17T02:10:06.120Z,1.30
2022-09-17T02:10:16.112Z,1.30
2022-09-17T02:10:26.112Z,1.10
2022-09-17T02:10:36.953Z,1.40
2022-09-17T02:10:46.130Z,1.40
2022-09-17T02:10:56.103Z,1.50
2022-09-17T02:11:06.957Z,1.60
2022-09-17T02:11:16.110Z,1.70
2022-09-17T02:11:26.132Z,1.90
2022-09-17T02:11:36.106Z,1.70
2022-09-17T02:11:46.114Z,1.60
2022-09-17T02:11:56.122Z,1.40
2022-09-17T02:12:06.214Z,1.80
2022-09-17T02:12:16.126Z,1.90
2022-09-17T02:12:26.102Z,1.60
2022-09-17T02:12:36.109Z,1.50
2022-09-17T02:12:46.115Z,1.50
2022-09-17T02:12:56.093Z,1.60
2022-09-17T02:13:06.117Z,1.50